Saint Germain, WI (54558)

11:56 AM CST on December 07, 2016 (GMT -0600)
Timbergate | | Change Station
Active Advisory: Winter Storm Warning

Elev 1654 ft 45.91 °N, 89.49 °W | Updated 49 seconds ago

Light Snow
Light Snow
17.5 °F
Feels Like 11 °F
N
4.0
Wind Variable Wind from NNW

Today
High -- | Low -- °F
--% Chance of Precip.
Yesterday
High -- | Low -- °F
Precip. -- in
Pressure 29.76 in
Visibility 4.0 miles
Clouds Overcast 1900 ft
Windchill 11 °F
Dew Point 13 °F
Humidity 83%
Rainfall in
Snow Depth Not available.
7:26 AM 4:13 PM
First Quarter, 54% visible
METAR KEGV 071735Z AUTO 25015G25KT 4SM -SN OVC019 M08/M12 A2976 RMK AO2 T10811122
Pressure 29.76 in
Visibility 4.0 miles
Clouds Overcast 1900 ft
Windchill 11 °F
Dew Point 13 °F
Humidity 83%
Rainfall in
Snow Depth Not available.
7:26 AM 4:13 PM
First Quarter, 54% visible
METAR KEGV 071735Z AUTO 25015G25KT 4SM -SN OVC019 M08/M12 A2976 RMK AO2 T10811122

10-Day Weather Forecast

Almanac

Astronomy

Dec. 07, 2016 Rise Set
Actual Time
Civil Twilight
Nautical Twilight
Astronomical Twilight
Moon
Length of Visible Light
Length of Day
Tomorrow will be .
, % of the Moon is Illuminated

Today's Extremes

State Highs State Lows

Community

WunderPhotos

Upload Photos

1,956,156 photos uploaded!

WunderBlog® & News

Nearby

Air Quality

  Air Quality AQ Index Pollutant
Not available.

Snow Depth

Station Depth Elevation

Earthquake Activity

City Distance Mag. Time & Date
Minimum magnitude displayed is 2.5.

Coastal Water Temperatures

Place Temperature

Stations

Nearby Weather Stations

Station Location Temp. Windchill Dew Point Humidity Wind Precip. Elev Updated Type
                   

Watches & Warnings

Winter Storm Warning
Issued: 10:54 AM CST Dec. 7, 2016 – National Weather Service

... Winter Storm Warning remains in effect from 3 am Thursday to
noon CST Friday...

* scattered snow showers and flurries are expected through
tonight. Heavier snow showers will develop late tonight. Periods
of snow showers... heavy at times... will continue to mid-day
Friday.

* The heaviest snowfall is expected to occur during the day on
Thursday.

* Total snow accumulation will range from 8 to 12 inches in the
snowbelt of northwest Vilas County... to 2 to 4 inches in The
Eagle river area.

* Blustery northwest winds will produce some blowing and drifting
of the fluffy type of snow.

* Impacts... the snow will lead to difficult travel conditions.

Precautionary/preparedness actions...

A Winter Storm Warning for heavy lake-effect snow means severe
winter weather conditions are expected. If you travel... be sure
to have a working flashlight... food... and water in your vehicle
in case of an emergency. The latest Wisconsin Road conditions can
be obtained by calling 511.